createdAt,value
2018-08-25T00:00:38.241Z,21.79
2018-08-25T00:03:07.270Z,21.77
2018-08-25T00:05:36.307Z,21.76
2018-08-25T00:08:05.334Z,21.73
2018-08-25T00:10:34.415Z,21.72
2018-08-25T00:13:04.042Z,21.71
2018-08-25T00:15:33.760Z,21.69
2018-08-25T00:18:02.935Z,21.67
2018-08-25T00:20:31.916Z,21.68
2018-08-25T00:23:00.998Z,21.67
2018-08-25T00:25:31.161Z,21.67
2018-08-25T00:28:00.340Z,21.67
2018-08-25T00:30:34.736Z,21.69
2018-08-25T00:33:04.712Z,21.71
2018-08-25T00:35:33.617Z,21.70
2018-08-25T00:38:02.589Z,21.69
2018-08-25T00:40:31.624Z,21.68
2018-08-25T00:43:00.673Z,21.67
2018-08-25T00:45:30.042Z,21.65
2018-08-25T00:47:59.069Z,21.64
2018-08-25T00:50:28.837Z,21.61
2018-08-25T00:52:58.236Z,21.60
2018-08-25T00:55:27.588Z,21.58
2018-08-25T00:57:56.988Z,21.56
2018-08-25T01:00:26.424Z,21.55
2018-08-25T01:02:55.611Z,21.55
2018-08-25T01:05:24.673Z,21.53
2018-08-25T01:07:54.695Z,21.49
2018-08-25T01:10:23.888Z,21.50
2018-08-25T01:12:52.876Z,21.50
2018-08-25T01:15:22.217Z,21.49
2018-08-25T01:17:51.326Z,21.47
2018-08-25T01:20:20.370Z,21.46
2018-08-25T01:22:49.501Z,21.47
2018-08-25T01:25:18.672Z,21.45
2018-08-25T01:27:47.934Z,21.43
2018-08-25T01:30:17.066Z,21.40
2018-08-25T01:32:46.812Z,21.37
2018-08-25T01:35:15.926Z,21.36
2018-08-25T01:37:45.498Z,21.33
2018-08-25T01:40:14.527Z,21.31
2018-08-25T01:42:43.690Z,21.31
2018-08-25T01:45:12.733Z,21.31
2018-08-25T01:47:42.124Z,21.27
2018-08-25T01:50:11.491Z,21.24
2018-08-25T01:52:40.952Z,21.20
2018-08-25T01:55:10.040Z,21.16
2018-08-25T01:57:39.392Z,21.10
2018-08-25T02:00:08.494Z,21.06
2018-08-25T02:02:37.497Z,21.04
2018-08-25T02:05:08.129Z,20.99
2018-08-25T02:07:37.403Z,20.97
2018-08-25T02:10:07.090Z,20.94
2018-08-25T02:12:36.291Z,20.92
2018-08-25T02:15:05.408Z,20.84
2018-08-25T02:17:35.238Z,20.89
2018-08-25T02:20:04.290Z,20.87
2018-08-25T02:22:33.321Z,20.85
2018-08-25T02:25:02.407Z,20.85
2018-08-25T02:27:31.398Z,20.86
2018-08-25T02:30:00.871Z,20.88
2018-08-25T02:32:30.669Z,20.87
2018-08-25T02:35:00.071Z,20.87
2018-08-25T02:37:29.004Z,20.87
2018-08-25T02:39:58.158Z,20.88
2018-08-25T02:42:27.287Z,20.91
2018-08-25T02:44:56.183Z,20.89
2018-08-25T02:47:31.528Z,20.88
2018-08-25T02:50:00.502Z,20.86
2018-08-25T02:52:30.002Z,20.87
2018-08-25T02:54:59.099Z,20.89
2018-08-25T02:57:28.354Z,20.89
2018-08-25T02:59:57.508Z,20.87
2018-08-25T03:02:27.048Z,20.87
2018-08-25T03:04:56.933Z,20.88
2018-08-25T03:07:26.137Z,20.90
2018-08-25T03:09:55.434Z,20.92
2018-08-25T03:12:24.530Z,20.92
2018-08-25T03:14:53.554Z,20.89
2018-08-25T03:17:23.181Z,20.90
2018-08-25T03:19:52.347Z,20.91
2018-08-25T03:22:23.079Z,20.89
2018-08-25T03:24:52.040Z,20.85
2018-08-25T03:27:22.028Z,20.84
2018-08-25T03:29:51.091Z,20.85
2018-08-25T03:32:20.458Z,20.85
2018-08-25T03:34:49.653Z,20.85
2018-08-25T03:37:18.951Z,20.85
2018-08-25T03:39:48.298Z,20.84
2018-08-25T03:42:17.628Z,20.85
2018-08-25T03:44:47.928Z,20.81
2018-08-25T03:47:17.003Z,20.78
2018-08-25T03:49:45.991Z,20.75
2018-08-25T03:52:15.029Z,20.75
2018-08-25T03:54:44.336Z,20.71
2018-08-25T03:57:14.187Z,20.69
2018-08-25T03:59:43.435Z,20.67
2018-08-25T04:02:12.749Z,20.64
2018-08-25T04:04:41.698Z,20.64
2018-08-25T04:07:11.151Z,20.62
2018-08-25T04:09:40.453Z,20.57
2018-08-25T04:12:09.814Z,20.55
2018-08-25T04:14:39.062Z,20.52
2018-08-25T04:17:08.349Z,20.49
2018-08-25T04:19:37.582Z,20.47
2018-08-25T04:22:06.764Z,20.48
2018-08-25T04:24:36.080Z,20.50
2018-08-25T04:27:05.112Z,20.49
2018-08-25T04:29:34.334Z,20.49
2018-08-25T04:32:03.760Z,20.47
2018-08-25T04:34:33.028Z,20.47
2018-08-25T04:37:02.381Z,20.47
2018-08-25T04:39:31.655Z,20.48
2018-08-25T04:42:00.597Z,20.49
2018-08-25T04:44:30.046Z,20.50
2018-08-25T04:46:59.221Z,20.50
2018-08-25T04:49:28.247Z,20.50
2018-08-25T04:51:57.737Z,20.51
2018-08-25T04:54:26.835Z,20.49
2018-08-25T04:56:56.264Z,20.48
2018-08-25T04:59:26.487Z,20.50
2018-08-25T05:01:55.722Z,20.53
2018-08-25T05:04:25.084Z,20.54
2018-08-25T05:06:54.566Z,20.53
2018-08-25T05:09:26.952Z,20.52
2018-08-25T05:11:55.981Z,20.50
2018-08-25T05:14:25.465Z,20.49
2018-08-25T05:16:54.968Z,20.49
2018-08-25T05:19:23.884Z,20.49
2018-08-25T05:21:53.146Z,20.48
2018-08-25T05:24:22.960Z,20.50
2018-08-25T05:26:52.931Z,20.49
2018-08-25T05:29:22.168Z,20.48
2018-08-25T05:31:51.262Z,20.46
2018-08-25T05:34:20.438Z,20.44
2018-08-25T05:36:49.875Z,20.39
2018-08-25T05:39:19.004Z,20.34
2018-08-25T05:41:48.229Z,20.31
2018-08-25T05:44:17.498Z,20.26
2018-08-25T05:46:47.072Z,20.23
2018-08-25T05:49:16.755Z,20.20
2018-08-25T05:51:46.086Z,20.19
2018-08-25T05:54:16.038Z,20.17
2018-08-25T05:56:45.178Z,20.15
2018-08-25T05:59:14.796Z,20.13
2018-08-25T06:01:43.862Z,20.11
2018-08-25T06:04:12.915Z,20.10
2018-08-25T06:06:42.285Z,20.09
2018-08-25T06:09:12.651Z,20.10
2018-08-25T06:11:43.111Z,20.10
2018-08-25T06:14:12.425Z,20.10
2018-08-25T06:16:41.611Z,20.08
2018-08-25T06:19:10.752Z,20.05
2018-08-25T06:21:40.393Z,20.01
2018-08-25T06:24:10.325Z,19.99
2018-08-25T06:26:39.425Z,19.96
2018-08-25T06:29:08.915Z,19.95
2018-08-25T06:31:37.927Z,19.96
2018-08-25T06:34:07.129Z,19.94
2018-08-25T06:36:36.384Z,19.91
2018-08-25T06:39:08.379Z,19.87
2018-08-25T06:41:37.453Z,19.85
2018-08-25T06:44:07.020Z,19.84
2018-08-25T06:46:36.157Z,19.83
2018-08-25T06:49:05.337Z,19.83
2018-08-25T06:51:34.693Z,19.83
2018-08-25T06:54:03.908Z,19.81
2018-08-25T06:56:33.011Z,19.83
2018-08-25T06:59:02.370Z,19.85
2018-08-25T07:01:31.470Z,19.88
2018-08-25T07:04:01.483Z,19.89
2018-08-25T07:06:30.506Z,19.91
2018-08-25T07:08:59.819Z,19.94
2018-08-25T07:11:28.973Z,19.99
2018-08-25T07:13:58.464Z,20.04
2018-08-25T07:16:28.062Z,20.06
2018-08-25T07:18:57.436Z,20.09
2018-08-25T07:21:27.322Z,20.11
2018-08-25T07:23:56.670Z,20.14
2018-08-25T07:26:25.862Z,20.18
2018-08-25T07:28:55.055Z,20.22
2018-08-25T07:31:24.279Z,20.23
2018-08-25T07:33:53.400Z,20.26
2018-08-25T07:36:22.666Z,20.29
2018-08-25T07:38:52.327Z,20.33
2018-08-25T07:41:21.765Z,20.39
2018-08-25T07:43:51.273Z,20.48
2018-08-25T07:46:20.655Z,20.58
2018-08-25T07:48:50.087Z,20.66
2018-08-25T07:51:19.305Z,20.73
2018-08-25T07:53:48.377Z,20.78
2018-08-25T07:56:17.687Z,20.81
2018-08-25T07:58:46.833Z,20.87
2018-08-25T08:01:16.142Z,20.94
2018-08-25T08:03:45.185Z,20.99
2018-08-25T08:06:14.414Z,21.05
2018-08-25T08:08:43.666Z,21.09
2018-08-25T08:11:13.863Z,21.16
2018-08-25T08:13:43.160Z,21.21
2018-08-25T08:16:13.972Z,21.29
2018-08-25T08:18:43.324Z,21.37
2018-08-25T08:21:12.527Z,21.42
2018-08-25T08:23:41.577Z,21.50
2018-08-25T08:26:10.815Z,21.57
2018-08-25T08:28:40.091Z,21.67
2018-08-25T08:31:09.215Z,21.71
2018-08-25T08:33:38.229Z,21.73
2018-08-25T08:36:07.398Z,21.75
2018-08-25T08:38:37.867Z,21.73
2018-08-25T08:41:13.425Z,21.71
2018-08-25T08:43:42.759Z,21.65
2018-08-25T08:46:12.278Z,21.58
2018-08-25T08:48:41.403Z,21.53
2018-08-25T08:51:10.875Z,21.50
2018-08-25T08:53:40.220Z,21.46
2018-08-25T08:56:09.516Z,21.41
2018-08-25T08:58:38.569Z,21.33
2018-08-25T09:01:07.517Z,21.27
2018-08-25T09:03:37.743Z,21.24
2018-08-25T09:06:07.102Z,21.20
2018-08-25T09:08:36.521Z,21.15
2018-08-25T09:11:05.572Z,21.12
2018-08-25T09:13:35.085Z,21.10
2018-08-25T09:16:04.479Z,21.06
2018-08-25T09:18:33.471Z,21.03
2018-08-25T09:21:02.729Z,21.00
2018-08-25T09:23:32.561Z,20.98
2018-08-25T09:26:02.023Z,20.96
2018-08-25T09:28:31.347Z,20.96
2018-08-25T09:31:00.439Z,20.96
2018-08-25T09:33:29.912Z,20.96
2018-08-25T09:35:59.012Z,20.93
2018-08-25T09:38:29.027Z,20.93
2018-08-25T09:40:58.364Z,20.91
2018-08-25T09:43:27.743Z,20.89
2018-08-25T09:45:57.059Z,20.87
2018-08-25T09:48:26.239Z,20.85
2018-08-25T09:50:55.347Z,20.82
2018-08-25T09:53:24.746Z,20.76
2018-08-25T09:55:54.151Z,20.72
2018-08-25T09:58:24.603Z,20.72
2018-08-25T10:00:58.848Z,20.72
2018-08-25T10:03:28.206Z,20.72
2018-08-25T10:05:57.451Z,20.70
2018-08-25T10:08:27.206Z,20.68
2018-08-25T10:10:56.426Z,20.71
2018-08-25T10:13:25.747Z,20.69
2018-08-25T10:15:55.015Z,20.63
2018-08-25T10:18:24.424Z,20.59
2018-08-25T10:20:53.702Z,20.58
2018-08-25T10:23:23.185Z,20.55
2018-08-25T10:25:53.224Z,20.54
2018-08-25T10:28:22.322Z,20.51
2018-08-25T10:30:51.934Z,20.46
2018-08-25T10:33:21.079Z,20.41
2018-08-25T10:35:50.545Z,20.38
2018-08-25T10:38:19.795Z,20.36
2018-08-25T10:40:49.053Z,20.28
2018-08-25T10:43:18.155Z,20.19
2018-08-25T10:45:47.116Z,20.12
2018-08-25T10:48:16.571Z,20.09
2018-08-25T10:50:45.932Z,20.06
2018-08-25T10:53:15.022Z,20.05
2018-08-25T10:55:44.658Z,20.06
2018-08-25T10:58:14.010Z,20.07
2018-08-25T11:00:43.288Z,20.05
2018-08-25T11:03:13.533Z,20.01
2018-08-25T11:05:42.876Z,19.96
2018-08-25T11:08:12.198Z,19.91
2018-08-25T11:10:41.271Z,19.86
2018-08-25T11:13:10.678Z,19.81
2018-08-25T11:15:41.085Z,19.78
2018-08-25T11:18:10.322Z,19.75
2018-08-25T11:20:39.457Z,19.74
2018-08-25T11:23:08.790Z,19.76
2018-08-25T11:25:37.975Z,19.75
2018-08-25T11:28:07.154Z,19.71
2018-08-25T11:30:36.091Z,19.68
2018-08-25T11:33:05.563Z,19.67
2018-08-25T11:35:34.764Z,19.66
2018-08-25T11:38:04.135Z,19.64
2018-08-25T11:40:33.380Z,19.61
2018-08-25T11:43:02.397Z,19.62
2018-08-25T11:45:31.613Z,19.62
2018-08-25T11:48:00.574Z,19.64
2018-08-25T11:50:29.726Z,19.67
2018-08-25T11:52:58.811Z,19.66
2018-08-25T11:55:28.476Z,19.65
2018-08-25T11:57:57.474Z,19.62
2018-08-25T12:00:27.216Z,19.63
2018-08-25T12:02:56.523Z,19.64
2018-08-25T12:05:26.744Z,19.63
2018-08-25T12:07:55.933Z,19.61
2018-08-25T12:10:25.820Z,19.58
2018-08-25T12:12:54.914Z,19.59
2018-08-25T12:15:24.458Z,19.58
2018-08-25T12:17:54.032Z,19.59
2018-08-25T12:20:23.377Z,19.58
2018-08-25T12:22:52.639Z,19.57
2018-08-25T12:25:21.797Z,19.58
2018-08-25T12:27:50.923Z,19.64
2018-08-25T12:30:20.152Z,19.70
2018-08-25T12:32:49.334Z,19.76
2018-08-25T12:35:18.401Z,19.82
2018-08-25T12:37:47.937Z,19.85
2018-08-25T12:40:18.142Z,19.89
2018-08-25T12:42:47.235Z,19.94
2018-08-25T12:45:16.232Z,19.97
2018-08-25T12:47:45.324Z,19.99
2018-08-25T12:50:14.428Z,20.04
2018-08-25T12:52:43.846Z,20.08
2018-08-25T12:55:13.108Z,20.10
2018-08-25T12:57:42.751Z,20.13
2018-08-25T13:00:11.836Z,20.15
2018-08-25T13:02:41.013Z,20.17
2018-08-25T13:05:10.257Z,20.20
2018-08-25T13:07:39.377Z,20.21
2018-08-25T13:10:08.517Z,20.23
2018-08-25T13:12:37.727Z,20.27
2018-08-25T13:15:08.141Z,20.30
2018-08-25T13:17:37.140Z,20.32
2018-08-25T13:20:07.167Z,20.32
2018-08-25T13:22:36.556Z,20.33
2018-08-25T13:25:06.011Z,20.34
2018-08-25T13:27:35.487Z,20.33
2018-08-25T13:30:05.150Z,20.33
2018-08-25T13:32:34.292Z,20.32
2018-08-25T13:35:03.349Z,20.31
2018-08-25T13:37:32.392Z,20.30
2018-08-25T13:40:01.403Z,20.27
2018-08-25T13:42:30.770Z,20.25
2018-08-25T13:44:59.852Z,20.24
2018-08-25T13:47:28.756Z,20.24
2018-08-25T13:49:58.272Z,20.26
2018-08-25T13:52:27.363Z,20.26
2018-08-25T13:54:57.132Z,20.25
2018-08-25T13:57:26.635Z,20.23
2018-08-25T13:59:55.767Z,20.22
2018-08-25T14:02:25.072Z,20.18
2018-08-25T14:04:54.328Z,20.17
2018-08-25T14:07:23.536Z,20.18
2018-08-25T14:09:53.641Z,20.16
2018-08-25T14:12:22.830Z,20.17
2018-08-25T14:14:52.084Z,20.19
2018-08-25T14:17:21.513Z,20.18
2018-08-25T14:19:50.405Z,20.20
2018-08-25T14:22:19.592Z,20.21
2018-08-25T14:24:48.737Z,20.23
2018-08-25T14:27:17.915Z,20.24
2018-08-25T14:29:47.003Z,20.24
2018-08-25T14:32:16.136Z,20.22
2018-08-25T14:34:45.175Z,20.22
2018-08-25T14:37:14.206Z,20.22
2018-08-25T14:39:43.748Z,20.20
2018-08-25T14:42:13.239Z,20.17
2018-08-25T14:44:42.259Z,20.16
2018-08-25T14:47:11.617Z,20.14
2018-08-25T14:49:40.935Z,20.13
2018-08-25T14:52:10.211Z,20.15
2018-08-25T14:54:39.203Z,20.17
2018-08-25T14:57:08.333Z,20.19
2018-08-25T14:59:37.676Z,20.22
2018-08-25T15:02:07.233Z,20.26
2018-08-25T15:04:36.926Z,20.31
2018-08-25T15:07:06.270Z,20.35
2018-08-25T15:09:35.595Z,20.41
2018-08-25T15:12:04.759Z,20.45
2018-08-25T15:14:34.062Z,20.46
2018-08-25T15:17:03.731Z,20.48
2018-08-25T15:19:33.076Z,20.47
2018-08-25T15:22:05.038Z,20.48
2018-08-25T15:24:34.268Z,20.48
2018-08-25T15:27:03.376Z,20.50
2018-08-25T15:29:32.781Z,20.53
2018-08-25T15:32:01.715Z,20.55
2018-08-25T15:34:30.807Z,20.58
2018-08-25T15:36:59.957Z,20.63
2018-08-25T15:39:29.385Z,20.64
2018-08-25T15:41:58.545Z,20.60
2018-08-25T15:44:27.845Z,20.60
2018-08-25T15:46:57.463Z,20.58
2018-08-25T15:49:26.603Z,20.56
2018-08-25T15:51:56.269Z,20.54
2018-08-25T15:54:25.557Z,20.51
2018-08-25T15:56:55.285Z,20.48
2018-08-25T15:59:24.358Z,20.48
2018-08-25T16:01:53.498Z,20.46
2018-08-25T16:04:22.804Z,20.47
2018-08-25T16:06:52.048Z,20.44
2018-08-25T16:09:21.189Z,20.44
2018-08-25T16:11:50.301Z,20.46
2018-08-25T16:14:19.898Z,20.46
2018-08-25T16:16:48.943Z,20.46
2018-08-25T16:19:18.895Z,20.45
2018-08-25T16:21:48.350Z,20.44
2018-08-25T16:24:17.629Z,20.41
2018-08-25T16:26:46.946Z,20.39
2018-08-25T16:29:16.099Z,20.37
2018-08-25T16:31:45.035Z,20.37
2018-08-25T16:34:14.175Z,20.35
2018-08-25T16:36:43.370Z,20.36
2018-08-25T16:39:13.250Z,20.37
2018-08-25T16:41:42.555Z,20.36
2018-08-25T16:44:12.498Z,20.35
2018-08-25T16:46:41.610Z,20.34
2018-08-25T16:49:10.726Z,20.31
2018-08-25T16:51:39.850Z,20.30
2018-08-25T16:54:15.593Z,20.29
2018-08-25T16:56:44.632Z,20.26
2018-08-25T16:59:13.774Z,20.25
2018-08-25T17:01:42.853Z,20.24
2018-08-25T17:04:12.065Z,20.23
2018-08-25T17:06:41.260Z,20.20
2018-08-25T17:09:11.318Z,20.17
2018-08-25T17:11:40.547Z,20.13
2018-08-25T17:14:10.051Z,20.12
2018-08-25T17:16:39.453Z,20.11
2018-08-25T17:19:08.448Z,20.10
2018-08-25T17:21:37.607Z,20.09
2018-08-25T17:24:06.693Z,20.09
2018-08-25T17:26:35.961Z,20.08
2018-08-25T17:29:04.994Z,20.06
2018-08-25T17:31:33.896Z,20.02
2018-08-25T17:34:03.666Z,19.96
2018-08-25T17:36:32.756Z,19.95
2018-08-25T17:39:01.852Z,19.91
2018-08-25T17:41:30.839Z,19.89
2018-08-25T17:43:59.864Z,19.86
2018-08-25T17:46:28.774Z,19.84
2018-08-25T17:48:57.720Z,19.80
2018-08-25T17:51:27.256Z,19.79
2018-08-25T17:53:56.399Z,19.77
2018-08-25T17:56:26.268Z,19.78
2018-08-25T17:58:55.214Z,19.77
2018-08-25T18:01:24.241Z,19.69
2018-08-25T18:03:53.479Z,19.71
2018-08-25T18:06:22.844Z,19.69
2018-08-25T18:08:52.162Z,19.69
2018-08-25T18:11:21.356Z,19.67
2018-08-25T18:13:50.516Z,19.66
2018-08-25T18:16:19.819Z,19.64
2018-08-25T18:18:48.936Z,19.61
2018-08-25T18:21:18.011Z,19.59
2018-08-25T18:23:47.348Z,19.56
2018-08-25T18:26:17.282Z,19.55
2018-08-25T18:28:46.878Z,19.51
2018-08-25T18:31:16.725Z,19.46
2018-08-25T18:33:45.877Z,19.46
2018-08-25T18:36:15.122Z,19.45
2018-08-25T18:38:44.625Z,19.42
2018-08-25T18:41:14.169Z,19.40
2018-08-25T18:43:43.287Z,19.36
2018-08-25T18:46:12.597Z,19.34
2018-08-25T18:48:42.488Z,19.30
2018-08-25T18:51:11.799Z,19.24
2018-08-25T18:53:41.154Z,19.21
2018-08-25T18:56:10.971Z,19.18
2018-08-25T18:58:40.289Z,19.16
2018-08-25T19:01:10.113Z,19.16
2018-08-25T19:03:39.609Z,19.14
2018-08-25T19:06:09.110Z,19.11
2018-08-25T19:08:38.166Z,19.10
2018-08-25T19:11:07.631Z,19.09
2018-08-25T19:13:36.831Z,19.05
2018-08-25T19:16:06.113Z,19.05
2018-08-25T19:18:35.260Z,19.02
2018-08-25T19:21:04.650Z,18.98
2018-08-25T19:23:34.158Z,18.95
2018-08-25T19:26:03.533Z,18.85
2018-08-25T19:28:32.964Z,18.88
2018-08-25T19:31:02.557Z,18.87
2018-08-25T19:33:32.000Z,18.84
2018-08-25T19:36:01.647Z,18.81
2018-08-25T19:38:31.395Z,18.80
2018-08-25T19:41:00.999Z,18.78
2018-08-25T19:43:30.618Z,18.78
2018-08-25T19:46:00.111Z,18.82
2018-08-25T19:48:29.744Z,18.82
2018-08-25T19:50:59.446Z,18.79
2018-08-25T19:53:29.197Z,18.78
2018-08-25T19:55:59.081Z,18.73
2018-08-25T19:58:28.671Z,18.80
2018-08-25T20:00:57.836Z,18.73
2018-08-25T20:03:27.500Z,18.74
2018-08-25T20:05:56.912Z,18.66
2018-08-25T20:08:26.339Z,18.63
2018-08-25T20:10:55.749Z,18.59
2018-08-25T20:13:25.078Z,18.54
2018-08-25T20:15:54.259Z,18.48
2018-08-25T20:18:23.998Z,18.46
2018-08-25T20:20:53.342Z,18.39
2018-08-25T20:23:22.795Z,18.43
2018-08-25T20:25:51.969Z,18.39
2018-08-25T20:28:21.258Z,18.38
2018-08-25T20:30:50.685Z,18.38
2018-08-25T20:33:19.794Z,18.35
2018-08-25T20:35:48.928Z,18.35
2018-08-25T20:38:18.319Z,18.29
2018-08-25T20:40:47.664Z,18.27
2018-08-25T20:43:17.069Z,18.31
2018-08-25T20:45:46.515Z,18.30
2018-08-25T20:48:15.964Z,18.28
2018-08-25T20:50:45.073Z,18.20
2018-08-25T20:53:14.181Z,18.15
2018-08-25T20:55:44.013Z,18.04
2018-08-25T20:58:13.210Z,17.97
2018-08-25T21:00:42.392Z,17.94
2018-08-25T21:03:11.663Z,17.91
2018-08-25T21:05:40.693Z,17.85
2018-08-25T21:08:09.959Z,17.85
2018-08-25T21:10:39.123Z,17.80
2018-08-25T21:13:08.443Z,17.71
2018-08-25T21:15:37.955Z,17.67
2018-08-25T21:18:07.095Z,17.65
2018-08-25T21:20:39.550Z,17.62
2018-08-25T21:23:08.768Z,17.57
2018-08-25T21:25:37.927Z,17.52
2018-08-25T21:28:07.515Z,17.47
2018-08-25T21:30:37.285Z,17.41
2018-08-25T21:33:06.615Z,17.37
2018-08-25T21:35:36.125Z,17.37
2018-08-25T21:38:05.361Z,17.38
2018-08-25T21:40:34.651Z,17.39
2018-08-25T21:43:04.264Z,17.37
2018-08-25T21:45:33.514Z,17.34
2018-08-25T21:48:02.543Z,17.33
2018-08-25T21:50:31.475Z,17.33
2018-08-25T21:53:00.449Z,17.30
2018-08-25T21:55:29.694Z,17.30
2018-08-25T21:57:59.292Z,17.30
2018-08-25T22:00:28.837Z,17.27
2018-08-25T22:02:58.088Z,17.29
2018-08-25T22:05:27.174Z,17.28
2018-08-25T22:07:56.947Z,17.26
2018-08-25T22:10:26.044Z,17.25
2018-08-25T22:12:55.184Z,17.22
2018-08-25T22:15:24.424Z,17.19
2018-08-25T22:17:53.899Z,17.16
2018-08-25T22:20:23.406Z,17.13
2018-08-25T22:22:52.590Z,17.10
2018-08-25T22:25:22.119Z,17.08
2018-08-25T22:27:51.211Z,17.05
2018-08-25T22:30:20.377Z,17.04
2018-08-25T22:32:49.426Z,17.06
2018-08-25T22:35:18.643Z,17.06
2018-08-25T22:37:47.766Z,17.00
2018-08-25T22:40:16.837Z,16.96
2018-08-25T22:42:46.287Z,16.94
2018-08-25T22:45:15.883Z,16.90
2018-08-25T22:47:45.029Z,16.86
2018-08-25T22:50:14.371Z,16.77
2018-08-25T22:52:48.523Z,16.75
2018-08-25T22:55:17.485Z,16.73
2018-08-25T22:57:46.918Z,16.72
2018-08-25T23:00:16.160Z,16.71
2018-08-25T23:02:45.205Z,16.67
2018-08-25T23:05:14.232Z,16.66
2018-08-25T23:07:43.505Z,16.66
2018-08-25T23:10:12.624Z,16.67
2018-08-25T23:12:41.789Z,16.66
2018-08-25T23:15:11.052Z,16.61
2018-08-25T23:17:40.172Z,16.57
2018-08-25T23:20:09.907Z,16.54
2018-08-25T23:22:39.619Z,16.51
2018-08-25T23:25:08.604Z,16.47
2018-08-25T23:27:37.544Z,16.41
2018-08-25T23:30:06.795Z,16.39
2018-08-25T23:32:36.220Z,16.35
2018-08-25T23:35:05.383Z,16.33
2018-08-25T23:37:34.593Z,16.28
2018-08-25T23:40:03.998Z,16.24
2018-08-25T23:42:32.932Z,16.23
2018-08-25T23:45:02.082Z,16.23
2018-08-25T23:47:31.497Z,16.24
2018-08-25T23:50:01.460Z,16.26
2018-08-25T23:52:34.904Z,16.24
2018-08-25T23:55:05.389Z,16.19
2018-08-25T23:57:34.696Z,16.18
